sensor_id;sensor_type;location;lat;lon;timestamp;pressure;altitude;pressure_sealevel;temperature;humidity
33496;BME280;19836;55.812;37.560;2023-02-17T00:02:24;100433.25;;;-2.94;59.09
33496;BME280;19836;55.812;37.560;2023-02-17T00:04:52;100436.00;;;-2.90;59.42
33496;BME280;19836;55.812;37.560;2023-02-17T00:07:18;100438.59;;;-2.91;59.67
33496;BME280;19836;55.812;37.560;2023-02-17T00:09:44;100442.88;;;-2.93;59.80
33496;BME280;19836;55.812;37.560;2023-02-17T00:12:10;100437.69;;;-2.92;59.74
33496;BME280;19836;55.812;37.560;2023-02-17T00:14:38;100442.81;;;-2.96;59.05
33496;BME280;19836;55.812;37.560;2023-02-17T00:17:04;100444.56;;;-2.95;59.20
33496;BME280;19836;55.812;37.560;2023-02-17T00:19:30;100445.38;;;-2.97;59.25
33496;BME280;19836;55.812;37.560;2023-02-17T00:22:00;100440.22;;;-2.95;59.33
33496;BME280;19836;55.812;37.560;2023-02-17T00:24:29;100449.28;;;-2.85;59.40
33496;BME280;19836;55.812;37.560;2023-02-17T00:26:55;100440.72;;;-2.80;59.18
33496;BME280;19836;55.812;37.560;2023-02-17T00:29:21;100448.44;;;-2.84;59.23
33496;BME280;19836;55.812;37.560;2023-02-17T00:31:47;100437.13;;;-2.83;59.56
33496;BME280;19836;55.812;37.560;2023-02-17T00:34:15;100432.00;;;-2.80;59.58
33496;BME280;19836;55.812;37.560;2023-02-17T00:36:41;100433.69;;;-2.81;59.73
33496;BME280;19836;55.812;37.560;2023-02-17T00:39:08;100431.09;;;-2.81;59.28
33496;BME280;19836;55.812;37.560;2023-02-17T00:41:33;100426.63;;;-2.83;59.50
33496;BME280;19836;55.812;37.560;2023-02-17T00:43:59;100435.13;;;-2.90;59.38
33496;BME280;19836;55.812;37.560;2023-02-17T00:46:26;100435.75;;;-2.97;59.54
33496;BME280;19836;55.812;37.560;2023-02-17T00:48:52;100425.19;;;-3.00;59.59
33496;BME280;19836;55.812;37.560;2023-02-17T00:51:18;100433.13;;;-2.97;59.47
33496;BME280;19836;55.812;37.560;2023-02-17T00:53:44;100428.00;;;-2.94;59.61
33496;BME280;19836;55.812;37.560;2023-02-17T00:56:10;100424.47;;;-2.96;59.11
33496;BME280;19836;55.812;37.560;2023-02-17T00:58:37;100425.25;;;-2.97;59.29
33496;BME280;19836;55.812;37.560;2023-02-17T01:01:03;100420.78;;;-3.01;59.11
33496;BME280;19836;55.812;37.560;2023-02-17T01:03:30;100421.56;;;-3.03;59.54
33496;BME280;19836;55.812;37.560;2023-02-17T01:05:56;100418.16;;;-3.01;59.25
33496;BME280;19836;55.812;37.560;2023-02-17T01:08:23;100423.59;;;-2.95;59.60
33496;BME280;19836;55.812;37.560;2023-02-17T01:10:50;100413.38;;;-2.88;59.38
33496;BME280;19836;55.812;37.560;2023-02-17T01:13:17;100416.69;;;-2.93;59.11
33496;BME280;19836;55.812;37.560;2023-02-17T01:15:49;100416.53;;;-2.97;59.62
33496;BME280;19836;55.812;37.560;2023-02-17T01:18:17;100417.53;;;-2.94;59.39
33496;BME280;19836;55.812;37.560;2023-02-17T01:20:43;100417.72;;;-2.88;59.83
33496;BME280;19836;55.812;37.560;2023-02-17T01:23:10;100418.75;;;-2.83;59.50
33496;BME280;19836;55.812;37.560;2023-02-17T01:25:37;100410.81;;;-2.86;59.83
33496;BME280;19836;55.812;37.560;2023-02-17T01:28:04;100406.31;;;-2.90;59.87
33496;BME280;19836;55.812;37.560;2023-02-17T01:30:30;100412.59;;;-2.85;59.84
33496;BME280;19836;55.812;37.560;2023-02-17T01:32:56;100404.78;;;-2.83;59.05
33496;BME280;19836;55.812;37.560;2023-02-17T01:35:22;100405.78;;;-2.80;59.75
33496;BME280;19836;55.812;37.560;2023-02-17T01:37:48;100411.06;;;-2.78;59.59
33496;BME280;19836;55.812;37.560;2023-02-17T01:40:15;100408.53;;;-2.76;59.64
33496;BME280;19836;55.812;37.560;2023-02-17T01:42:42;100414.75;;;-2.72;59.34
33496;BME280;19836;55.812;37.560;2023-02-17T01:47:45;100404.19;;;-2.75;59.04
33496;BME280;19836;55.812;37.560;2023-02-17T01:50:14;100405.47;;;-2.89;59.54
33496;BME280;19836;55.812;37.560;2023-02-17T01:52:40;100415.03;;;-2.91;59.60
33496;BME280;19836;55.812;37.560;2023-02-17T01:55:10;100419.22;;;-2.96;59.22
33496;BME280;19836;55.812;37.560;2023-02-17T01:57:39;100411.97;;;-3.03;59.38
33496;BME280;19836;55.812;37.560;2023-02-17T02:00:08;100418.97;;;-3.02;59.43
33496;BME280;19836;55.812;37.560;2023-02-17T02:02:43;100422.56;;;-3.00;59.60
33496;BME280;19836;55.812;37.560;2023-02-17T02:05:13;100422.56;;;-3.00;59.26
33496;BME280;19836;55.812;37.560;2023-02-17T02:07:41;100425.06;;;-3.03;59.40
33496;BME280;19836;55.812;37.560;2023-02-17T02:10:09;100423.34;;;-3.03;59.55
33496;BME280;19836;55.812;37.560;2023-02-17T02:12:39;100407.03;;;-2.94;59.36
33496;BME280;19836;55.812;37.560;2023-02-17T02:15:10;100407.22;;;-2.88;59.33
33496;BME280;19836;55.812;37.560;2023-02-17T02:22:55;100421.84;;;-2.95;59.30
33496;BME280;19836;55.812;37.560;2023-02-17T02:26:18;100413.00;;;-2.98;59.28
33496;BME280;19836;55.812;37.560;2023-02-17T02:31:23;100403.75;;;-2.87;59.47
33496;BME280;19836;55.812;37.560;2023-02-17T02:34:03;100406.31;;;-2.90;59.32
33496;BME280;19836;55.812;37.560;2023-02-17T02:36:45;100405.34;;;-2.92;59.27
33496;BME280;19836;55.812;37.560;2023-02-17T02:39:17;100410.91;;;-2.83;59.60
33496;BME280;19836;55.812;37.560;2023-02-17T02:41:54;100412.13;;;-2.73;59.28
33496;BME280;19836;55.812;37.560;2023-02-17T02:44:20;100404.38;;;-2.69;59.08
33496;BME280;19836;55.812;37.560;2023-02-17T02:47:39;100406.28;;;-2.65;59.33
33496;BME280;19836;55.812;37.560;2023-02-17T02:49:51;100402.59;;;-2.70;59.24
33496;BME280;19836;55.812;37.560;2023-02-17T03:00:57;100409.63;;;-2.69;59.56
33496;BME280;19836;55.812;37.560;2023-02-17T03:03:34;100417.00;;;-2.84;59.61
33496;BME280;19836;55.812;37.560;2023-02-17T03:06:21;100412.66;;;-2.82;59.45
33496;BME280;19836;55.812;37.560;2023-02-17T03:08:58;100412.97;;;-2.73;59.93
33496;BME280;19836;55.812;37.560;2023-02-17T03:11:26;100416.31;;;-2.78;59.46
33496;BME280;19836;55.812;37.560;2023-02-17T03:14:07;100416.94;;;-2.86;59.28
33496;BME280;19836;55.812;37.560;2023-02-17T03:16:35;100414.38;;;-2.84;59.83
33496;BME280;19836;55.812;37.560;2023-02-17T03:19:01;100409.13;;;-2.84;59.84
33496;BME280;19836;55.812;37.560;2023-02-17T03:21:34;100405.84;;;-2.77;59.84
33496;BME280;19836;55.812;37.560;2023-02-17T03:24:00;100402.56;;;-2.72;59.78
33496;BME280;19836;55.812;37.560;2023-02-17T03:26:27;100409.63;;;-2.69;59.86
33496;BME280;19836;55.812;37.560;2023-02-17T03:28:53;100391.94;;;-2.76;59.72
33496;BME280;19836;55.812;37.560;2023-02-17T03:31:19;100400.53;;;-2.80;59.96
33496;BME280;19836;55.812;37.560;2023-02-17T03:33:44;100397.16;;;-2.76;59.85
33496;BME280;19836;55.812;37.560;2023-02-17T03:36:10;100395.66;;;-2.68;59.87
33496;BME280;19836;55.812;37.560;2023-02-17T03:38:36;100401.81;;;-2.67;60.25
33496;BME280;19836;55.812;37.560;2023-02-17T03:41:02;100397.25;;;-2.73;59.95
33496;BME280;19836;55.812;37.560;2023-02-17T03:43:28;100399.94;;;-2.72;59.88
33496;BME280;19836;55.812;37.560;2023-02-17T03:45:54;100404.38;;;-2.69;60.46
33496;BME280;19836;55.812;37.560;2023-02-17T03:48:20;100403.41;;;-2.72;60.48
33496;BME280;19836;55.812;37.560;2023-02-17T03:50:46;100403.47;;;-2.70;60.43
33496;BME280;19836;55.812;37.560;2023-02-17T03:53:12;100403.34;;;-2.74;60.49
33496;BME280;19836;55.812;37.560;2023-02-17T03:55:38;100398.09;;;-2.74;60.18
33496;BME280;19836;55.812;37.560;2023-02-17T03:58:04;100407.00;;;-2.69;60.19
33496;BME280;19836;55.812;37.560;2023-02-17T04:00:30;100406.16;;;-2.68;60.28
33496;BME280;19836;55.812;37.560;2023-02-17T04:02:55;100407.91;;;-2.68;60.43
33496;BME280;19836;55.812;37.560;2023-02-17T04:05:22;100408.03;;;-2.64;60.75
33496;BME280;19836;55.812;37.560;2023-02-17T04:07:49;100410.63;;;-2.66;60.57
33496;BME280;19836;55.812;37.560;2023-02-17T04:10:15;100399.88;;;-2.73;60.93
33496;BME280;19836;55.812;37.560;2023-02-17T04:12:41;100412.13;;;-2.73;60.80
33496;BME280;19836;55.812;37.560;2023-02-17T04:15:07;100409.38;;;-2.77;60.70
33496;BME280;19836;55.812;37.560;2023-02-17T04:17:35;100407.59;;;-2.78;60.55
33496;BME280;19836;55.812;37.560;2023-02-17T04:20:03;100408.53;;;-2.76;60.50
33496;BME280;19836;55.812;37.560;2023-02-17T04:22:29;100414.75;;;-2.72;60.73
33496;BME280;19836;55.812;37.560;2023-02-17T04:24:55;100409.63;;;-2.69;61.02
33496;BME280;19836;55.812;37.560;2023-02-17T04:27:21;100403.28;;;-2.76;60.62
33496;BME280;19836;55.812;37.560;2023-02-17T04:29:47;100401.44;;;-2.78;60.85
33496;BME280;19836;55.812;37.560;2023-02-17T04:32:13;100405.97;;;-2.74;60.77
33496;BME280;19836;55.812;37.560;2023-02-17T04:34:39;100404.19;;;-2.75;61.26
33496;BME280;19836;55.812;37.560;2023-02-17T04:37:05;100403.22;;;-2.78;60.69
33496;BME280;19836;55.812;37.560;2023-02-17T04:39:31;100402.19;;;-2.82;60.46
33496;BME280;19836;55.812;37.560;2023-02-17T04:41:57;100402.19;;;-2.82;61.05
33496;BME280;19836;55.812;37.560;2023-02-17T04:44:23;100405.97;;;-2.74;60.96
33496;BME280;19836;55.812;37.560;2023-02-17T04:46:49;100404.38;;;-2.69;61.07
33496;BME280;19836;55.812;37.560;2023-02-17T04:49:15;100413.19;;;-2.67;61.00
33496;BME280;19836;55.812;37.560;2023-02-17T04:51:40;100412.38;;;-2.65;60.97
33496;BME280;19836;55.812;37.560;2023-02-17T04:54:06;100413.41;;;-2.60;60.93
33496;BME280;19836;55.812;37.560;2023-02-17T04:56:32;100406.34;;;-2.62;60.79
33496;BME280;19836;55.812;37.560;2023-02-17T04:58:58;100408.88;;;-2.65;60.74
33496;BME280;19836;55.812;37.560;2023-02-17T05:01:24;100417.44;;;-2.71;60.83
33496;BME280;19836;55.812;37.560;2023-02-17T05:03:50;100410.22;;;-2.78;60.75
33496;BME280;19836;55.812;37.560;2023-02-17T05:06:16;100408.38;;;-2.80;60.50
33496;BME280;19836;55.812;37.560;2023-02-17T05:08:42;100406.63;;;-2.80;60.88
33496;BME280;19836;55.812;37.560;2023-02-17T05:11:08;100409.25;;;-2.81;60.28
33496;BME280;19836;55.812;37.560;2023-02-17T05:13:33;100405.97;;;-2.74;60.69
33496;BME280;19836;55.812;37.560;2023-02-17T05:15:59;100413.97;;;-2.70;60.66
33496;BME280;19836;55.812;37.560;2023-02-17T05:18:25;100404.50;;;-2.66;60.51
33496;BME280;19836;55.812;37.560;2023-02-17T05:20:51;100404.69;;;-2.60;60.79
33496;BME280;19836;55.812;37.560;2023-02-17T05:23:17;100403.84;;;-2.59;60.51
33496;BME280;19836;55.812;37.560;2023-02-17T05:25:43;100409.81;;;-2.63;60.87
33496;BME280;19836;55.812;37.560;2023-02-17T05:28:09;100401.81;;;-2.67;60.72
33496;BME280;19836;55.812;37.560;2023-02-17T05:30:35;100401.81;;;-2.67;60.60
33496;BME280;19836;55.812;37.560;2023-02-17T05:33:00;100407.38;;;-2.57;60.49
33496;BME280;19836;55.812;37.560;2023-02-17T05:35:26;100402.31;;;-2.51;60.60
33496;BME280;19836;55.812;37.560;2023-02-17T05:37:52;100406.66;;;-2.53;60.42
33496;BME280;19836;55.812;37.560;2023-02-17T05:40:18;100411.91;;;-2.53;60.65
33496;BME280;19836;55.812;37.560;2023-02-17T05:42:44;100410.06;;;-2.56;60.79
33496;BME280;19836;55.812;37.560;2023-02-17T05:45:10;100409.47;;;-2.47;60.43
33496;BME280;19836;55.812;37.560;2023-02-17T05:47:36;100406.34;;;-2.36;60.82
33496;BME280;19836;55.812;37.560;2023-02-17T05:50:02;100414.56;;;-2.25;60.52
33496;BME280;19836;55.812;37.560;2023-02-17T05:52:28;100417.19;;;-2.24;60.43
33496;BME280;19836;55.812;37.560;2023-02-17T05:54:54;100415.38;;;-2.26;60.39
33496;BME280;19836;55.812;37.560;2023-02-17T05:57:20;100414.41;;;-2.30;60.27
33496;BME280;19836;55.812;37.560;2023-02-17T05:59:46;100414.50;;;-2.27;60.63
33496;BME280;19836;55.812;37.560;2023-02-17T06:02:12;100414.75;;;-2.19;60.67
33496;BME280;19836;55.812;37.560;2023-02-17T06:04:38;100426.25;;;-2.14;60.44
33496;BME280;19836;55.812;37.560;2023-02-17T06:07:04;100422.13;;;-2.06;60.63
33496;BME280;19836;55.812;37.560;2023-02-17T06:09:30;100427.41;;;-2.05;60.50
33496;BME280;19836;55.812;37.560;2023-02-17T06:11:55;100428.09;;;-2.12;60.46
33496;BME280;19836;55.812;37.560;2023-02-17T06:14:21;100431.47;;;-2.16;60.86
33496;BME280;19836;55.812;37.560;2023-02-17T06:16:47;100427.13;;;-2.15;60.38
33496;BME280;19836;55.812;37.560;2023-02-17T06:19:13;100428.72;;;-2.20;60.57
33496;BME280;19836;55.812;37.560;2023-02-17T06:21:39;100432.44;;;-2.12;60.90
33496;BME280;19836;55.812;37.560;2023-02-17T06:24:05;100432.84;;;-2.00;60.64
33496;BME280;19836;55.812;37.560;2023-02-17T06:26:31;100437.13;;;-2.02;60.74
33496;BME280;19836;55.812;37.560;2023-02-17T06:28:56;100429.88;;;-2.11;60.65
33496;BME280;19836;55.812;37.560;2023-02-17T06:31:22;100439.56;;;-2.08;60.90
33496;BME280;19836;55.812;37.560;2023-02-17T06:33:48;100437.88;;;-2.06;60.84
33496;BME280;19836;55.812;37.560;2023-02-17T06:36:14;100440.50;;;-2.06;60.67
33496;BME280;19836;55.812;37.560;2023-02-17T06:38:40;100432.84;;;-2.00;60.63
33496;BME280;19836;55.812;37.560;2023-02-17T06:41:06;100436.28;;;-2.01;60.47
33496;BME280;19836;55.812;37.560;2023-02-17T06:43:31;100430.78;;;-2.10;60.10
33496;BME280;19836;55.812;37.560;2023-02-17T06:45:57;100431.81;;;-2.04;60.40
33496;BME280;19836;55.812;37.560;2023-02-17T06:48:23;100421.31;;;-2.04;60.34
33496;BME280;19836;55.812;37.560;2023-02-17T06:50:49;100434.38;;;-2.07;60.13
33496;BME280;19836;55.812;37.560;2023-02-17T06:53:14;100437.88;;;-2.06;60.52
33496;BME280;19836;55.812;37.560;2023-02-17T06:55:43;100439.00;;;-1.98;60.44
33496;BME280;19836;55.812;37.560;2023-02-17T06:58:09;100429.63;;;-1.90;60.74
33496;BME280;19836;55.812;37.560;2023-02-17T07:00:35;100429.88;;;-1.81;60.42
33496;BME280;19836;55.812;37.560;2023-02-17T07:03:00;100436.94;;;-1.80;60.37
33496;BME280;19836;55.812;37.560;2023-02-17T07:05:26;100427.31;;;-1.80;60.07
33496;BME280;19836;55.812;37.560;2023-02-17T07:07:52;100430.09;;;-1.75;60.21
33496;BME280;19836;55.812;37.560;2023-02-17T07:10:19;100430.16;;;-1.72;59.99
33496;BME280;19836;55.812;37.560;2023-02-17T07:12:45;100432.03;;;-1.68;59.85
33496;BME280;19836;55.812;37.560;2023-02-17T07:15:11;100424.00;;;-1.74;59.90
33496;BME280;19836;55.812;37.560;2023-02-17T07:17:37;100426.63;;;-1.74;59.75
33496;BME280;19836;55.812;37.560;2023-02-17T07:20:04;100425.72;;;-1.75;60.22
33496;BME280;19836;55.812;37.560;2023-02-17T07:22:30;100425.88;;;-1.70;60.10
33496;BME280;19836;55.812;37.560;2023-02-17T07:24:56;100423.25;;;-1.69;60.32
33496;BME280;19836;55.812;37.560;2023-02-17T07:27:22;100418.91;;;-1.68;60.17
33496;BME280;19836;55.812;37.560;2023-02-17T07:29:48;100411.72;;;-1.75;60.11
33496;BME280;19836;55.812;37.560;2023-02-17T07:32:13;100415.13;;;-1.77;60.00
33496;BME280;19836;55.812;37.560;2023-02-17T07:34:39;100409.91;;;-1.76;60.03
33496;BME280;19836;55.812;37.560;2023-02-17T07:37:06;100417.94;;;-1.72;60.21
33496;BME280;19836;55.812;37.560;2023-02-17T07:39:33;100418.00;;;-1.69;60.59
33496;BME280;19836;55.812;37.560;2023-02-17T07:41:59;100410.97;;;-1.70;60.25
33496;BME280;19836;55.812;37.560;2023-02-17T07:44:26;100415.16;;;-1.76;60.45
33496;BME280;19836;55.812;37.560;2023-02-17T07:46:52;100412.75;;;-1.69;60.47
33496;BME280;19836;55.812;37.560;2023-02-17T07:49:18;100418.06;;;-1.67;60.46
33496;BME280;19836;55.812;37.560;2023-02-17T07:51:44;100416.44;;;-1.62;60.76
33496;BME280;19836;55.812;37.560;2023-02-17T07:54:10;100411.56;;;-1.50;60.73
33496;BME280;19836;55.812;37.560;2023-02-17T07:56:38;100417.25;;;-1.35;60.44
33496;BME280;19836;55.812;37.560;2023-02-17T07:59:10;100412.00;;;-1.35;60.53
33496;BME280;19836;55.812;37.560;2023-02-17T08:01:36;100412.75;;;-1.39;60.23
33496;BME280;19836;55.812;37.560;2023-02-17T08:04:03;100413.75;;;-1.34;60.44
33496;BME280;19836;55.812;37.560;2023-02-17T08:06:29;100410.38;;;-1.30;60.78
33496;BME280;19836;55.812;37.560;2023-02-17T08:08:55;100414.84;;;-1.26;60.42
33496;BME280;19836;55.812;37.560;2023-02-17T08:11:40;100411.41;;;-1.24;60.68
33496;BME280;19836;55.812;37.560;2023-02-17T08:14:27;100412.22;;;-1.26;60.23
33496;BME280;19836;55.812;37.560;2023-02-17T08:16:53;100402.81;;;-1.18;60.38
33496;BME280;19836;55.812;37.560;2023-02-17T08:19:19;100402.34;;;-1.02;60.14
33496;BME280;19836;55.812;37.560;2023-02-17T08:21:45;100399.88;;;-0.96;60.08
33496;BME280;19836;55.812;37.560;2023-02-17T08:24:11;100406.00;;;-0.97;60.01
33496;BME280;19836;55.812;37.560;2023-02-17T08:26:38;100401.69;;;-0.95;59.80
33496;BME280;19836;55.812;37.560;2023-02-17T08:29:04;100402.88;;;-0.82;59.73
33496;BME280;19836;55.812;37.560;2023-02-17T08:31:32;100399.81;;;-0.65;59.47
33496;BME280;19836;55.812;37.560;2023-02-17T08:34:07;100401.63;;;-0.63;59.11
33496;BME280;19836;55.812;37.560;2023-02-17T08:36:34;100399.97;;;-0.59;58.95
33496;BME280;19836;55.812;37.560;2023-02-17T08:39:04;100387.84;;;-0.51;58.88
33496;BME280;19836;55.812;37.560;2023-02-17T08:41:33;100383.59;;;-0.47;59.05
33496;BME280;19836;55.812;37.560;2023-02-17T08:44:01;100391.44;;;-0.49;58.72
33496;BME280;19836;55.812;37.560;2023-02-17T08:46:28;100380.97;;;-0.46;58.82
33496;BME280;19836;55.812;37.560;2023-02-17T08:48:55;100384.56;;;-0.43;58.12
33496;BME280;19836;55.812;37.560;2023-02-17T08:51:22;100389.19;;;-0.32;58.16
33496;BME280;19836;55.812;37.560;2023-02-17T08:53:55;100384.88;;;-0.29;58.02
33496;BME280;19836;55.812;37.560;2023-02-17T08:56:23;100378.75;;;-0.28;57.96
33496;BME280;19836;55.812;37.560;2023-02-17T08:58:49;100379.50;;;-0.35;57.49
33496;BME280;19836;55.812;37.560;2023-02-17T09:01:16;100382.94;;;-0.36;57.82
33496;BME280;19836;55.812;37.560;2023-02-17T09:03:46;100383.13;;;-0.30;57.63
33496;BME280;19836;55.812;37.560;2023-02-17T09:06:13;100388.94;;;-0.43;57.46
33496;BME280;19836;55.812;37.560;2023-02-17T09:08:41;100381.75;;;-0.50;56.83
33496;BME280;19836;55.812;37.560;2023-02-17T09:11:08;100389.44;;;-0.59;57.13
33496;BME280;19836;55.812;37.560;2023-02-17T09:13:35;100386.84;;;-0.56;57.11
33496;BME280;19836;55.812;37.560;2023-02-17T09:16:01;100387.94;;;-0.48;57.25
33496;BME280;19836;55.812;37.560;2023-02-17T09:18:27;100388.16;;;-0.39;57.27
33496;BME280;19836;55.812;37.560;2023-02-17T09:20:53;100383.69;;;-0.43;57.17
33496;BME280;19836;55.812;37.560;2023-02-17T09:23:19;100381.13;;;-0.40;57.41
33496;BME280;19836;55.812;37.560;2023-02-17T09:25:45;100379.28;;;-0.44;57.11
33496;BME280;19836;55.812;37.560;2023-02-17T09:28:12;100384.41;;;-0.50;57.47
33496;BME280;19836;55.812;37.560;2023-02-17T09:30:41;100380.78;;;-0.55;57.26
33496;BME280;19836;55.812;37.560;2023-02-17T09:33:07;100371.94;;;-0.57;57.33
33496;BME280;19836;55.812;37.560;2023-02-17T09:35:33;100384.22;;;-0.56;56.86
33496;BME280;19836;55.812;37.560;2023-02-17T09:37:59;100368.44;;;-0.56;57.26
33496;BME280;19836;55.812;37.560;2023-02-17T09:40:44;100370.25;;;-0.55;57.14
33496;BME280;19836;55.812;37.560;2023-02-17T09:43:15;100368.28;;;-0.62;57.29
33496;BME280;19836;55.812;37.560;2023-02-17T09:45:45;100367.13;;;-0.75;57.19
33496;BME280;19836;55.812;37.560;2023-02-17T09:48:15;100364.44;;;-0.76;57.27
33496;BME280;19836;55.812;37.560;2023-02-17T09:50:44;100366.63;;;-0.60;57.37
33496;BME280;19836;55.812;37.560;2023-02-17T09:53:21;100357.84;;;-0.59;57.48
33496;BME280;19836;55.812;37.560;2023-02-17T09:55:54;100355.19;;;-0.61;56.93
33496;BME280;19836;55.812;37.560;2023-02-17T09:58:51;100358.63;;;-0.63;57.14
33496;BME280;19836;55.812;37.560;2023-02-17T10:01:21;100359.25;;;-0.73;57.52
33496;BME280;19836;55.812;37.560;2023-02-17T10:03:56;100360.91;;;-0.78;57.25
33496;BME280;19836;55.812;37.560;2023-02-17T10:06:35;100353.19;;;-0.71;57.49
33496;BME280;19836;55.812;37.560;2023-02-17T10:09:13;100351.34;;;-0.75;57.55
33496;BME280;19836;55.812;37.560;2023-02-17T10:12:08;100348.09;;;-0.63;57.25
33496;BME280;19836;55.812;37.560;2023-02-17T10:14:56;100344.81;;;-0.55;57.27
33496;BME280;19836;55.812;37.560;2023-02-17T10:17:39;100342.28;;;-0.50;57.51
33496;BME280;19836;55.812;37.560;2023-02-17T10:20:11;100340.66;;;-0.44;57.59
33496;BME280;19836;55.812;37.560;2023-02-17T10:22:41;100342.72;;;-0.31;57.52
33496;BME280;19836;55.812;37.560;2023-02-17T10:26:18;100344.41;;;-0.34;57.11
33496;BME280;19836;55.812;37.560;2023-02-17T10:34:01;100339.03;;;-0.40;57.50
33496;BME280;19836;55.812;37.560;2023-02-17T10:36:59;100330.13;;;-0.45;57.00
33496;BME280;19836;55.812;37.560;2023-02-17T10:41:56;100326.63;;;-0.44;57.32
33496;BME280;19836;55.812;37.560;2023-02-17T10:44:23;100321.25;;;-0.50;57.58
33496;BME280;19836;55.812;37.560;2023-02-17T10:46:52;100317.63;;;-0.55;57.54
33496;BME280;19836;55.812;37.560;2023-02-17T10:49:29;100312.34;;;-0.55;57.30
33496;BME280;19836;55.812;37.560;2023-02-17T10:52:18;100316.03;;;-0.47;57.58
33496;BME280;19836;55.812;37.560;2023-02-17T10:54:53;100309.13;;;-0.42;57.32
33496;BME280;19836;55.812;37.560;2023-02-17T10:57:22;100307.56;;;-0.34;57.49
33496;BME280;19836;55.812;37.560;2023-02-17T10:59:49;100303.13;;;-0.37;57.14
33496;BME280;19836;55.812;37.560;2023-02-17T11:02:33;100306.22;;;-0.54;57.31
33496;BME280;19836;55.812;37.560;2023-02-17T11:04:59;100300.88;;;-0.57;57.37
33496;BME280;19836;55.812;37.560;2023-02-17T11:09:59;100305.03;;;-0.68;57.08
33496;BME280;19836;55.812;37.560;2023-02-17T11:12:52;100295.13;;;-0.78;57.39
33496;BME280;19836;55.812;37.560;2023-02-17T11:15:43;100298.41;;;-0.88;57.34
33496;BME280;19836;55.812;37.560;2023-02-17T11:18:17;100297.41;;;-0.93;57.71
33496;BME280;19836;55.812;37.560;2023-02-17T11:20:45;100302.44;;;-1.02;57.25
33496;BME280;19836;55.812;37.560;2023-02-17T11:25:41;100292.81;;;-1.02;57.99
33496;BME280;19836;55.812;37.560;2023-02-17T11:28:12;100295.69;;;-0.91;57.69
33496;BME280;19836;55.812;37.560;2023-02-17T11:30:47;100292.88;;;-1.00;57.75
33496;BME280;19836;55.812;37.560;2023-02-17T11:33:19;100282.16;;;-1.08;57.86
33496;BME280;19836;55.812;37.560;2023-02-17T11:35:53;100277.03;;;-1.02;57.70
33496;BME280;19836;55.812;37.560;2023-02-17T11:38:23;100282.63;;;-0.88;58.25
33496;BME280;19836;55.812;37.560;2023-02-17T11:40:52;100274.00;;;-0.81;57.98
33496;BME280;19836;55.812;37.560;2023-02-17T11:43:19;100278.63;;;-0.73;58.02
33496;BME280;19836;55.812;37.560;2023-02-17T11:45:57;100274.28;;;-0.71;58.11
33496;BME280;19836;55.812;37.560;2023-02-17T11:53:48;100279.41;;;-0.77;57.64
33496;BME280;19836;55.812;37.560;2023-02-17T11:56:22;100277.53;;;-0.81;58.01
33496;BME280;19836;55.812;37.560;2023-02-17T11:59:10;100271.25;;;-0.87;57.88
33496;BME280;19836;55.812;37.560;2023-02-17T12:04:31;100266.03;;;-0.86;57.78
33496;BME280;19836;55.812;37.560;2023-02-17T12:13:17;100262.72;;;-0.77;58.31
33496;BME280;19836;55.812;37.560;2023-02-17T12:18:32;100257.78;;;-0.62;58.52
33496;BME280;19836;55.812;37.560;2023-02-17T12:26:46;100263.00;;;-0.65;58.17
33496;BME280;19836;55.812;37.560;2023-02-17T12:29:34;100253.44;;;-0.62;58.46
33496;BME280;19836;55.812;37.560;2023-02-17T12:32:29;100255.19;;;-0.61;58.25
33496;BME280;19836;55.812;37.560;2023-02-17T12:35:02;100254.94;;;-0.73;57.97
33496;BME280;19836;55.812;37.560;2023-02-17T12:37:44;100251.38;;;-0.75;58.03
33496;BME280;19836;55.812;37.560;2023-02-17T12:40:33;100254.03;;;-0.73;57.99
33496;BME280;19836;55.812;37.560;2023-02-17T12:43:05;100255.00;;;-0.70;57.90
33496;BME280;19836;55.812;37.560;2023-02-17T12:45:39;100248.94;;;-0.66;58.03
33496;BME280;19836;55.812;37.560;2023-02-17T12:48:15;100250.69;;;-0.66;57.84
33496;BME280;19836;55.812;37.560;2023-02-17T12:53:30;100255.28;;;-0.57;57.69
33496;BME280;19836;55.812;37.560;2023-02-17T12:56:01;100254.25;;;-0.64;58.18
33496;BME280;19836;55.812;37.560;2023-02-17T12:58:29;100249.84;;;-0.65;58.29
33496;BME280;19836;55.812;37.560;2023-02-17T13:01:07;100249.13;;;-0.58;58.75
33496;BME280;19836;55.812;37.560;2023-02-17T13:03:36;100251.72;;;-0.60;58.44
33496;BME280;19836;55.812;37.560;2023-02-17T13:11:34;100248.56;;;-0.82;58.30
33496;BME280;19836;55.812;37.560;2023-02-17T13:14:37;100239.78;;;-0.84;58.84
33496;BME280;19836;55.812;37.560;2023-02-17T13:17:04;100241.50;;;-0.85;58.92
33496;BME280;19836;55.812;37.560;2023-02-17T13:19:32;100244.03;;;-0.89;58.79
33496;BME280;19836;55.812;37.560;2023-02-17T13:21:59;100243.91;;;-0.94;59.14
33496;BME280;19836;55.812;37.560;2023-02-17T13:24:33;100238.59;;;-0.97;59.18
33496;BME280;19836;55.812;37.560;2023-02-17T13:27:33;100239.50;;;-0.95;59.36
33496;BME280;19836;55.812;37.560;2023-02-17T13:30:07;100239.41;;;-0.99;59.30
33496;BME280;19836;55.812;37.560;2023-02-17T13:32:37;100235.84;;;-1.02;59.38
33496;BME280;19836;55.812;37.560;2023-02-17T13:37:40;100238.47;;;-1.02;59.49
33496;BME280;19836;55.812;37.560;2023-02-17T13:42:54;100238.41;;;-1.04;59.47
33496;BME280;19836;55.812;37.560;2023-02-17T13:45:42;100225.97;;;-1.11;59.24
33496;BME280;19836;55.812;37.560;2023-02-17T13:50:49;100226.97;;;-1.06;59.18
33496;BME280;19836;55.812;37.560;2023-02-17T13:53:38;100221.88;;;-1.00;59.33
33496;BME280;19836;55.812;37.560;2023-02-17T13:56:30;100211.28;;;-1.03;59.04
33496;BME280;19836;55.812;37.560;2023-02-17T13:59:08;100213.09;;;-1.01;59.06
33496;BME280;19836;55.812;37.560;2023-02-17T14:01:37;100214.91;;;-0.98;58.96
33496;BME280;19836;55.812;37.560;2023-02-17T14:04:19;100216.41;;;-1.09;58.98
33496;BME280;19836;55.812;37.560;2023-02-17T14:06:45;100211.78;;;-1.19;58.76